createdAt,value
2023-02-02T00:00:01.420Z,1.70
2023-02-02T00:05:00.668Z,2.40
2023-02-02T00:10:00.674Z,1.80
2023-02-02T00:15:00.679Z,1.80
2023-02-02T00:20:00.783Z,1.70
2023-02-02T00:25:00.702Z,1.40
2023-02-02T00:30:00.658Z,1.10
2023-02-02T00:35:00.669Z,1.60
2023-02-02T00:40:00.663Z,1.60
2023-02-02T00:45:01.601Z,1.50
2023-02-02T00:50:01.100Z,2.10
2023-02-02T00:55:00.689Z,2.00
2023-02-02T01:00:01.621Z,1.50
2023-02-02T01:05:01.445Z,2.20
2023-02-02T01:10:00.876Z,2.70
2023-02-02T01:15:01.055Z,2.00
2023-02-02T01:20:00.913Z,2.60
2023-02-02T01:25:00.863Z,2.10
2023-02-02T01:30:00.664Z,2.10
2023-02-02T01:35:00.752Z,2.60
2023-02-02T01:40:00.699Z,2.40
2023-02-02T01:45:10.905Z,2.50
2023-02-02T01:50:02.769Z,2.70
2023-02-02T01:55:04.691Z,2.90
2023-02-02T02:00:06.240Z,2.70
2023-02-02T02:05:03.378Z,1.60
2023-02-02T02:10:00.806Z,2.50
2023-02-02T02:15:00.709Z,2.20
2023-02-02T02:20:11.636Z,2.10
2023-02-02T02:25:20.537Z,2.30
2023-02-02T02:30:20.543Z,1.90
2023-02-02T02:35:11.627Z,2.50
2023-02-02T02:40:06.841Z,2.40
2023-02-02T02:45:02.866Z,2.40
2023-02-02T02:50:00.657Z,2.30
2023-02-02T02:55:02.843Z,2.90
2023-02-02T03:00:11.119Z,2.00
2023-02-02T03:05:10.031Z,1.80
2023-02-02T03:10:03.086Z,2.70
2023-02-02T03:15:03.681Z,2.50
2023-02-02T03:20:00.698Z,2.00
2023-02-02T03:25:00.718Z,2.20
2023-02-02T03:30:00.722Z,2.30
2023-02-02T03:35:00.699Z,2.30
2023-02-02T03:40:00.761Z,1.90
2023-02-02T03:45:00.712Z,1.90
2023-02-02T03:50:00.973Z,2.50
2023-02-02T03:55:00.648Z,1.90
2023-02-02T04:00:03.094Z,1.90
2023-02-02T04:05:00.702Z,2.20
2023-02-02T04:10:00.714Z,2.20
2023-02-02T04:15:00.680Z,2.40
2023-02-02T04:20:01.549Z,2.50
2023-02-02T04:25:00.671Z,2.40
2023-02-02T04:30:00.690Z,2.30
2023-02-02T04:35:00.729Z,2.30
2023-02-02T04:40:00.690Z,1.50
2023-02-02T04:45:00.651Z,2.10
2023-02-02T04:50:00.668Z,1.90
2023-02-02T04:55:00.650Z,2.10
2023-02-02T05:00:01.494Z,1.90
2023-02-02T05:05:01.018Z,1.60
2023-02-02T05:10:00.664Z,1.60
2023-02-02T05:15:00.800Z,2.60
2023-02-02T05:20:00.724Z,2.30
2023-02-02T05:25:00.682Z,1.60
2023-02-02T05:30:00.951Z,2.10
2023-02-02T05:35:00.684Z,2.10
2023-02-02T05:40:00.720Z,2.80
2023-02-02T05:45:01.468Z,2.00
2023-02-02T05:50:00.784Z,1.70
2023-02-02T05:55:00.956Z,2.30
2023-02-02T06:00:01.828Z,1.60
2023-02-02T06:05:00.730Z,2.80
2023-02-02T06:10:00.703Z,1.90
2023-02-02T06:15:00.732Z,1.70
2023-02-02T06:20:00.783Z,1.90
2023-02-02T06:25:00.669Z,2.20
2023-02-02T06:30:00.812Z,2.40
2023-02-02T06:35:00.659Z,2.80
2023-02-02T06:40:00.683Z,1.80
2023-02-02T06:45:01.130Z,1.70
2023-02-02T06:50:00.664Z,1.80
2023-02-02T06:55:00.676Z,1.90
2023-02-02T07:00:01.707Z,2.50
2023-02-02T07:05:00.849Z,2.50
2023-02-02T07:10:00.686Z,2.10
2023-02-02T07:15:00.827Z,2.10
2023-02-02T07:20:01.850Z,2.20
2023-02-02T07:25:00.663Z,2.20
2023-02-02T07:30:00.655Z,2.30
2023-02-02T07:35:00.676Z,1.70
2023-02-02T07:40:00.746Z,2.00
2023-02-02T07:45:00.799Z,2.10
2023-02-02T07:50:00.696Z,2.90
2023-02-02T07:55:14.044Z,2.90
2023-02-02T08:00:01.377Z,2.60
2023-02-02T08:05:00.774Z,2.50
2023-02-02T08:10:00.786Z,1.90
2023-02-02T08:15:00.971Z,2.20
2023-02-02T08:20:00.700Z,2.40
2023-02-02T08:25:00.670Z,2.20
2023-02-02T08:30:00.712Z,1.60
2023-02-02T08:35:00.663Z,2.20
2023-02-02T08:40:00.813Z,2.50
2023-02-02T08:46:01.675Z,2.20
2023-02-02T08:50:00.665Z,2.20
2023-02-02T08:55:00.685Z,1.90
2023-02-02T09:00:02.356Z,1.60
2023-02-02T09:05:00.676Z,1.50
2023-02-02T09:10:00.745Z,2.10
2023-02-02T09:15:00.690Z,2.10
2023-02-02T09:20:00.701Z,1.60
2023-02-02T09:25:00.678Z,1.40
2023-02-02T09:30:00.653Z,1.70
2023-02-02T09:35:00.675Z,1.60
2023-02-02T09:40:00.685Z,2.00
2023-02-02T09:45:06.455Z,1.70
2023-02-02T09:50:15.836Z,2.20
2023-02-02T09:55:05.297Z,2.00
2023-02-02T10:00:01.508Z,2.10
2023-02-02T10:05:12.287Z,2.70
2023-02-02T10:10:10.651Z,1.90
2023-02-02T10:15:17.996Z,2.20
2023-02-02T10:20:14.639Z,1.60
2023-02-02T10:25:00.795Z,1.70
2023-02-02T10:30:10.639Z,1.70
2023-02-02T10:35:20.543Z,1.90
2023-02-02T10:40:15.502Z,1.90
2023-02-02T10:45:09.706Z,1.90
2023-02-02T10:50:11.656Z,2.40
2023-02-02T10:55:17.759Z,1.90
2023-02-02T11:00:10.483Z,1.50
2023-02-02T11:05:00.715Z,1.60
2023-02-02T11:10:00.741Z,1.80
2023-02-02T11:15:04.366Z,1.70
2023-02-02T11:20:01.057Z,1.90
2023-02-02T11:25:06.230Z,1.80
2023-02-02T11:30:20.243Z,2.30
2023-02-02T11:35:00.654Z,1.90
2023-02-02T11:40:17.714Z,2.30
2023-02-02T11:45:00.923Z,1.60
2023-02-02T11:50:03.606Z,1.10
2023-02-02T11:55:07.810Z,1.80
2023-02-02T12:00:10.772Z,1.50
2023-02-02T12:05:10.641Z,2.10
2023-02-02T12:10:12.438Z,1.90
2023-02-02T12:15:14.338Z,1.90
2023-02-02T12:20:19.214Z,2.00
2023-02-02T12:25:08.698Z,1.80
2023-02-02T12:30:10.079Z,1.90
2023-02-02T12:35:13.916Z,2.00
2023-02-02T12:40:20.574Z,1.60
2023-02-02T12:45:10.621Z,2.00
2023-02-02T12:50:01.652Z,2.20
2023-02-02T12:55:16.027Z,2.60
2023-02-02T13:00:10.780Z,2.80
2023-02-02T13:05:18.484Z,2.20
2023-02-02T13:10:11.172Z,2.20
2023-02-02T13:15:04.992Z,2.20
2023-02-02T13:20:06.348Z,3.00
2023-02-02T13:25:03.938Z,2.10
2023-02-02T13:30:20.556Z,2.10
2023-02-02T13:35:10.596Z,2.90
2023-02-02T13:40:14.677Z,2.30
2023-02-02T13:45:15.877Z,2.30
2023-02-02T13:50:10.052Z,2.50
2023-02-02T13:55:00.693Z,2.90
2023-02-02T14:00:10.899Z,2.20
2023-02-02T14:05:03.398Z,4.20
2023-02-02T14:10:01.194Z,2.30
2023-02-02T14:15:01.558Z,2.80
2023-02-02T14:20:02.441Z,2.70
2023-02-02T14:25:00.651Z,2.90
2023-02-02T14:30:20.055Z,3.40
2023-02-02T14:35:08.162Z,2.60
2023-02-02T14:40:10.649Z,2.30
2023-02-02T14:45:13.977Z,2.60
2023-02-02T14:50:00.878Z,3.20
2023-02-02T14:55:00.730Z,2.80
2023-02-02T15:00:01.863Z,2.70
2023-02-02T15:05:20.535Z,2.30
2023-02-02T15:10:00.662Z,2.30
2023-02-02T15:15:20.582Z,2.30
2023-02-02T15:20:11.274Z,3.60
2023-02-02T15:25:12.270Z,3.40
2023-02-02T15:30:06.149Z,3.00
2023-02-02T15:35:04.790Z,2.90
2023-02-02T15:40:02.124Z,3.40
2023-02-02T15:45:01.080Z,3.30
2023-02-02T15:50:03.190Z,3.50
2023-02-02T15:55:00.890Z,3.20
2023-02-02T16:00:20.554Z,3.50
2023-02-02T16:05:00.747Z,3.40
2023-02-02T16:10:04.229Z,3.60
2023-02-02T16:15:00.887Z,4.00
2023-02-02T16:20:04.658Z,4.10
2023-02-02T16:25:04.728Z,3.90
2023-02-02T16:30:07.321Z,3.30
2023-02-02T16:35:02.777Z,4.10
2023-02-02T16:40:14.517Z,4.80
2023-02-02T16:45:00.358Z,3.60
2023-02-02T16:50:07.738Z,3.50
2023-02-02T16:55:00.387Z,3.30
2023-02-02T17:00:06.237Z,3.60
2023-02-02T17:05:15.623Z,3.00
2023-02-02T17:10:10.277Z,3.30
2023-02-02T17:15:11.492Z,3.40
2023-02-02T17:20:00.303Z,3.20
2023-02-02T17:25:00.429Z,3.00
2023-02-02T17:30:02.392Z,3.50
2023-02-02T17:35:00.296Z,3.30
2023-02-02T17:40:00.386Z,3.10
2023-02-02T17:45:00.365Z,2.70
2023-02-02T17:50:00.307Z,3.20
2023-02-02T17:55:00.342Z,2.70
2023-02-02T18:00:00.345Z,2.50
2023-02-02T18:05:00.735Z,3.20
2023-02-02T18:10:00.323Z,3.80
2023-02-02T18:15:02.418Z,3.40
2023-02-02T18:20:00.458Z,3.60
2023-02-02T18:25:00.333Z,3.20
2023-02-02T18:30:00.415Z,3.20
2023-02-02T18:35:00.628Z,3.10
2023-02-02T18:40:00.614Z,3.20
2023-02-02T18:45:00.948Z,3.30
2023-02-02T18:50:00.316Z,3.10
2023-02-02T18:55:00.359Z,2.80
2023-02-02T19:00:00.317Z,2.80
2023-02-02T19:05:00.407Z,3.40
2023-02-02T19:10:00.317Z,3.30
2023-02-02T19:15:00.437Z,2.70
2023-02-02T19:20:08.631Z,2.80
2023-02-02T19:25:11.393Z,2.50
2023-02-02T19:30:00.348Z,3.00
2023-02-02T19:35:00.415Z,2.50
2023-02-02T19:40:10.276Z,2.80
2023-02-02T19:45:11.199Z,2.70
2023-02-02T19:50:12.741Z,3.30
2023-02-02T19:55:00.450Z,2.90
2023-02-02T20:00:10.159Z,3.20
2023-02-02T20:05:10.273Z,3.00
2023-02-02T20:10:20.214Z,2.40
2023-02-02T20:15:00.305Z,2.60
2023-02-02T20:20:00.405Z,2.60
2023-02-02T20:25:05.305Z,1.70
2023-02-02T20:30:20.183Z,2.20
2023-02-02T20:35:20.226Z,1.70
2023-02-02T20:40:06.226Z,2.00
2023-02-02T20:45:00.352Z,1.90
2023-02-02T20:50:00.315Z,1.90
2023-02-02T20:55:00.331Z,2.60
2023-02-02T21:00:00.329Z,1.90
2023-02-02T21:05:00.385Z,1.90
2023-02-02T21:10:00.370Z,2.00
2023-02-02T21:15:00.313Z,2.30
2023-02-02T21:20:00.320Z,1.60
2023-02-02T21:25:00.357Z,1.70
2023-02-02T21:30:00.557Z,1.70
2023-02-02T21:35:00.378Z,2.40
2023-02-02T21:40:00.486Z,2.20
2023-02-02T21:45:20.221Z,2.30
2023-02-02T21:50:14.970Z,1.90
2023-02-02T21:55:20.218Z,2.60
2023-02-02T22:00:20.193Z,2.30
2023-02-02T22:05:10.018Z,2.50
2023-02-02T22:10:00.444Z,3.00
2023-02-02T22:15:00.386Z,2.30
2023-02-02T22:20:11.994Z,2.20
2023-02-02T22:25:13.078Z,3.20
2023-02-02T22:30:11.823Z,2.00
2023-02-02T22:35:00.299Z,2.40
2023-02-02T22:40:00.918Z,2.10
2023-02-02T22:45:00.372Z,2.20
2023-02-02T22:50:00.391Z,2.00
2023-02-02T22:55:00.303Z,2.30
2023-02-02T23:00:00.328Z,2.40
2023-02-02T23:05:00.306Z,1.70
2023-02-02T23:10:00.767Z,1.80
2023-02-02T23:15:00.385Z,2.20
2023-02-02T23:20:02.490Z,1.90
2023-02-02T23:25:00.557Z,2.00
2023-02-02T23:30:00.554Z,1.60
2023-02-02T23:35:00.754Z,1.80
2023-02-02T23:40:00.379Z,1.80
2023-02-02T23:45:00.330Z,2.10
2023-02-02T23:50:04.384Z,1.60
2023-02-02T23:55:01.761Z,1.40
